Time;durP1;ratioP1;P1;durP2;ratioP2;P2;SDS_P1;SDS_P2;PMS_P1;PMS_P2;Temp;Humidity;BMP_temperature;BMP_pressure;BME280_temperature;BME280_humidity;BME280_pressure;Samples;Min_cycle;Max_cycle;Signal;HPM_P1;HPM_P2
2022/01/16 00:01:01;;;;;;;76.47;35.93;;;2.10;99.90;;;;;;6205270;23;20494;-37
2022/01/16 00:06:22;;;;;;;71.90;35.40;;;2.00;99.90;;;;;;6147224;23;20024;-38
2022/01/16 00:08:47;;;;;;;77.97;35.83;;;2.00;99.90;;;;;;6200332;23;20106;-38
2022/01/16 00:11:13;;;;;;;79.00;37.07;;;2.00;99.90;;;;;;6204602;23;20127;-38
2022/01/16 00:13:39;;;;;;;70.37;36.00;;;2.00;99.90;;;;;;6204171;23;20024;-37
2022/01/16 00:16:05;;;;;;;67.83;32.97;;;1.90;99.90;;;;;;6178368;23;20108;-38
2022/01/16 00:18:41;;;;;;;65.90;33.23;;;1.90;99.90;;;;;;6185492;23;20059;-39
2022/01/16 00:21:07;;;;;;;64.40;31.43;;;1.90;99.90;;;;;;6180784;23;20264;-36
2022/01/16 00:23:33;;;;;;;73.37;34.37;;;1.80;99.90;;;;;;6177981;23;20024;-37
2022/01/16 00:25:58;;;;;;;76.67;36.27;;;1.80;99.90;;;;;;6204966;23;20340;-37
2022/01/16 00:28:25;;;;;;;77.83;35.90;;;1.80;99.90;;;;;;6184661;23;20127;-36
2022/01/16 00:30:52;;;;;;;77.17;35.87;;;1.70;99.90;;;;;;6153316;23;20132;-38
2022/01/16 00:33:18;;;;;;;84.30;37.77;;;1.70;99.90;;;;;;6203646;23;20484;-38
2022/01/16 00:35:44;;;;;;;80.13;37.17;;;1.70;99.90;;;;;;6178149;23;20056;-38
2022/01/16 00:38:10;;;;;;;85.43;37.57;;;1.70;99.90;;;;;;6185565;23;20136;-38
2022/01/16 00:40:36;;;;;;;83.27;39.23;;;1.70;99.90;;;;;;6205445;23;20059;-37
2022/01/16 00:43:03;;;;;;;83.60;37.30;;;1.70;99.90;;;;;;6204229;23;20056;-38
2022/01/16 00:45:33;;;;;;;85.63;38.47;;;1.60;99.90;;;;;;6177880;23;20092;-38
2022/01/16 00:48:03;;;;;;;90.67;41.03;;;1.70;99.90;;;;;;6185036;23;20052;-38
2022/01/16 00:50:29;;;;;;;88.87;40.27;;;1.70;99.90;;;;;;6204663;23;20090;-38
2022/01/16 00:52:55;;;;;;;85.53;40.33;;;1.70;99.90;;;;;;6204871;23;20052;-38
2022/01/16 00:55:21;;;;;;;90.43;40.67;;;1.70;99.90;;;;;;6178221;23;20059;-37
2022/01/16 00:57:46;;;;;;;93.67;41.60;;;1.70;99.90;;;;;;6185431;23;20048;-38
2022/01/16 01:00:13;;;;;;;95.83;43.77;;;1.70;99.90;;;;;;6177214;23;20055;-38
2022/01/16 01:02:39;;;;;;;98.53;45.27;;;1.70;99.90;;;;;;6204137;23;20024;-38
2022/01/16 01:05:05;;;;;;;94.70;44.73;;;1.70;99.90;;;;;;6205620;23;20012;-38
2022/01/16 01:07:31;;;;;;;97.03;46.53;;;1.70;99.90;;;;;;6185119;23;20019;-38
2022/01/16 01:09:57;;;;;;;91.63;44.83;;;1.70;99.90;;;;;;6205528;23;20066;-38
2022/01/16 01:12:40;;;;;;;89.30;45.43;;;1.70;99.90;;;;;;6177157;23;21628;-39
2022/01/16 01:15:08;;;;;;;94.80;46.17;;;1.70;99.90;;;;;;6177124;23;20027;-38
2022/01/16 01:17:43;;;;;;;88.33;45.10;;;1.70;99.90;;;;;;6185298;23;20021;-38
2022/01/16 01:20:10;;;;;;;92.67;45.33;;;1.70;99.90;;;;;;6205174;23;20510;-38
2022/01/16 01:22:35;;;;;;;91.73;46.43;;;1.70;99.90;;;;;;6205852;23;20031;-39
2022/01/16 01:25:01;;;;;;;100.20;46.60;;;1.70;99.90;;;;;;6207481;23;20032;-37
2022/01/16 01:27:31;;;;;;;97.03;47.30;;;1.70;99.90;;;;;;6186684;23;20110;-38
2022/01/16 01:30:06;;;;;;;99.27;45.90;;;1.70;99.90;;;;;;6154798;23;20321;-38
2022/01/16 01:32:37;;;;;;;94.40;45.63;;;1.70;99.90;;;;;;6205694;23;20067;-38
2022/01/16 01:35:04;;;;;;;99.93;47.57;;;1.70;99.90;;;;;;6206880;23;20511;-39
2022/01/16 01:37:30;;;;;;;98.47;48.17;;;1.70;99.90;;;;;;6160678;23;20095;-41
2022/01/16 01:39:55;;;;;;;103.63;47.83;;;1.70;99.90;;;;;;6207151;23;20527;-37
2022/01/16 01:42:23;;;;;;;101.37;47.17;;;1.70;99.90;;;;;;6205403;23;20666;-37
2022/01/16 01:53:01;;;;;;;107.07;50.63;;;1.80;99.90;;;;;;6206041;23;20027;-38
2022/01/16 01:55:27;;;;;;;117.17;51.50;;;1.80;99.90;;;;;;6206214;23;20343;-38
2022/01/16 01:57:54;;;;;;;106.00;49.03;;;1.80;99.90;;;;;;6186931;23;20110;-38
2022/01/16 02:00:20;;;;;;;107.47;47.67;;;1.80;99.90;;;;;;6205635;23;20160;-38
2022/01/16 02:03:12;;;;;;;103.27;47.23;;;1.80;99.90;;;;;;6205926;23;20047;-38
2022/01/16 02:05:41;;;;;;;114.13;48.03;;;1.80;99.90;;;;;;6206398;23;20074;-38
2022/01/16 02:08:06;;;;;;;108.43;49.57;;;1.80;99.90;;;;;;6186429;23;20743;-38
2022/01/16 02:10:34;;;;;;;103.70;49.77;;;1.80;99.90;;;;;;6206183;23;20328;-38
2022/01/16 02:13:05;;;;;;;105.80;50.90;;;1.80;99.90;;;;;;6205138;23;20347;-38
2022/01/16 02:27:53;;;;;;;88.80;38.63;;;1.80;99.90;;;;;;6153862;23;20013;-37
2022/01/16 02:31:57;;;;;;;117.23;49.83;;;1.80;99.90;;;;;;6205938;23;20103;-38
2022/01/16 02:37:04;;;;;;;124.23;50.97;;;1.80;99.90;;;;;;6187018;23;20483;-37
2022/01/16 02:39:34;;;;;;;112.37;47.93;;;1.70;99.90;;;;;;6206053;23;20016;-38
2022/01/16 02:42:00;;;;;;;119.53;51.17;;;1.80;99.90;;;;;;6206603;23;20047;-37
2022/01/16 02:46:58;;;;;;;125.73;50.30;;;1.80;99.90;;;;;;6187114;23;20076;-38
2022/01/16 02:49:29;;;;;;;128.17;51.37;;;1.80;99.90;;;;;;6204150;23;20432;-37
2022/01/16 02:51:56;;;;;;;;;;;1.80;99.90;;;;;;6207071;23;20028;-38
2022/01/16 02:54:23;;;;;;;128.60;48.80;;;1.80;99.90;;;;;;6205006;23;19943;-38
2022/01/16 02:56:49;;;;;;;126.13;50.43;;;1.80;99.90;;;;;;6187684;23;20032;-38
2022/01/16 02:59:17;;;;;;;124.00;50.23;;;1.80;99.90;;;;;;6203985;23;20024;-38
2022/01/16 03:01:44;;;;;;;126.03;49.53;;;1.80;99.90;;;;;;6205765;23;20021;-37
2022/01/16 03:04:10;;;;;;;121.03;48.13;;;1.80;99.90;;;;;;6178171;23;20553;-38
2022/01/16 03:06:36;;;;;;;126.20;50.30;;;1.80;99.90;;;;;;6162189;23;20107;-37
2022/01/16 03:09:07;;;;;;;129.63;50.63;;;1.80;99.90;;;;;;6203110;23;20352;-38
2022/01/16 03:11:40;;;;;;;126.85;51.33;;;1.80;99.90;;;;;;6205634;23;20020;-38
2022/01/16 03:14:11;;;;;;;133.17;50.20;;;1.80;99.90;;;;;;6204831;23;20024;-38
2022/01/16 03:16:40;;;;;;;130.50;49.47;;;1.80;99.90;;;;;;6189249;23;20027;-39
2022/01/16 03:22:03;;;;;;;134.43;51.17;;;1.80;99.90;;;;;;6205624;23;20039;-38
2022/01/16 03:24:37;;;;;;;151.43;52.17;;;1.80;99.90;;;;;;6204690;23;20575;-38
2022/01/16 03:27:15;;;;;;;134.67;53.00;;;1.80;99.90;;;;;;6187436;23;20009;-37
2022/01/16 03:29:44;;;;;;;132.63;49.57;;;1.80;99.90;;;;;;6204005;23;20076;-39
2022/01/16 03:32:13;;;;;;;126.80;49.03;;;1.80;99.90;;;;;;6203945;23;20020;-38
2022/01/16 03:34:39;;;;;;;125.43;50.87;;;1.80;99.90;;;;;;6179326;23;20287;-38
2022/01/16 03:37:05;;;;;;;130.00;48.70;;;1.80;99.90;;;;;;6186489;23;20023;-38
2022/01/16 03:39:31;;;;;;;124.23;48.63;;;1.90;99.90;;;;;;6205315;23;20056;-38
2022/01/16 03:41:59;;;;;;;123.77;47.00;;;1.90;99.90;;;;;;6205858;23;20099;-38
2022/01/16 03:44:24;;;;;;;131.23;47.93;;;1.90;99.90;;;;;;6177245;23;20032;-38
2022/01/16 03:46:50;;;;;;;127.23;48.30;;;1.90;99.90;;;;;;6187282;23;20051;-35
2022/01/16 03:49:25;;;;;;;123.30;48.10;;;1.90;99.90;;;;;;6203854;23;20499;-38
2022/01/16 03:51:52;;;;;;;121.37;48.27;;;1.90;99.90;;;;;;6205494;23;20445;-39
2022/01/16 03:54:20;;;;;;;122.43;48.47;;;1.90;99.90;;;;;;6203951;23;20017;-38
2022/01/16 03:56:46;;;;;;;125.70;48.50;;;1.90;99.90;;;;;;6186594;23;20083;-38
2022/01/16 03:59:13;;;;;;;136.10;49.80;;;2.00;99.90;;;;;;6176643;23;20039;-38
2022/01/16 04:01:39;;;;;;;136.20;50.13;;;2.00;99.90;;;;;;6205291;23;20510;-37
2022/01/16 04:04:05;;;;;;;127.93;50.03;;;2.00;99.90;;;;;;6203452;23;20028;-38
2022/01/16 04:06:31;;;;;;;129.23;50.47;;;2.00;99.90;;;;;;6188985;23;20016;-38
2022/01/16 04:08:57;;;;;;;146.40;51.37;;;2.00;99.90;;;;;;6202539;23;20079;-38
2022/01/16 04:11:25;;;;;;;140.57;51.33;;;2.00;99.90;;;;;;6178057;23;20032;-38
2022/01/16 04:13:54;;;;;;;157.17;52.07;;;2.00;99.90;;;;;;6204605;23;20030;-38
2022/01/16 04:16:22;;;;;;;146.37;50.67;;;2.00;99.90;;;;;;6191676;23;20021;-38
2022/01/16 04:18:51;;;;;;;146.83;53.43;;;2.00;99.90;;;;;;6200376;23;20023;-37
2022/01/16 04:21:24;;;;;;;144.17;52.07;;;2.00;99.90;;;;;;6205002;23;20056;-39
2022/01/16 04:23:50;;;;;;;157.87;51.77;;;2.00;99.90;;;;;;6204668;23;20334;-37
2022/01/16 04:26:17;;;;;;;158.03;54.07;;;2.10;99.90;;;;;;6164732;23;20340;-39
2022/01/16 04:28:46;;;;;;;164.30;53.77;;;2.10;99.90;;;;;;6198455;23;20472;-38
2022/01/16 04:31:13;;;;;;;158.43;52.80;;;2.10;99.90;;;;;;6204666;23;20031;-37
2022/01/16 04:33:38;;;;;;;157.30;53.53;;;2.10;99.90;;;;;;6177766;23;20032;-38
2022/01/16 04:36:04;;;;;;;159.67;54.10;;;2.10;99.90;;;;;;6204817;23;20019;-38
2022/01/16 04:38:31;;;;;;;165.87;53.73;;;2.10;99.90;;;;;;6187970;23;20091;-38
2022/01/16 04:43:51;;;;;;;166.10;57.07;;;2.20;99.90;;;;;;6204502;23;20028;-38
2022/01/16 04:46:22;;;;;;;170.93;58.80;;;2.20;99.90;;;;;;6164064;23;20023;-36
2022/01/16 04:48:49;;;;;;;173.63;56.55;;;2.20;99.90;;;;;;6200398;23;20025;-38
2022/01/16 04:51:16;;;;;;;166.00;56.93;;;2.20;99.90;;;;;;6204687;23;20103;-38
2022/01/16 04:53:42;;;;;;;166.33;57.73;;;2.30;99.90;;;;;;6204424;23;20028;-39
2022/01/16 04:56:09;;;;;;;167.87;54.47;;;2.30;99.90;;;;;;6205861;23;20124;-37
2022/01/16 04:58:36;;;;;;;175.23;57.87;;;2.30;99.90;;;;;;6189564;23;20017;-38
2022/01/16 05:01:02;;;;;;;174.63;58.07;;;2.30;99.90;;;;;;6179406;23;20404;-37
2022/01/16 05:03:31;;;;;;;169.87;57.23;;;2.30;99.90;;;;;;6205340;23;20123;-38
2022/01/16 05:05:58;;;;;;;185.77;59.83;;;2.40;99.90;;;;;;6180098;23;20024;-38
2022/01/16 05:08:23;;;;;;;176.13;58.97;;;2.40;99.90;;;;;;6186782;23;20103;-38
2022/01/16 05:10:54;;;;;;;185.53;59.87;;;2.40;99.90;;;;;;6180205;23;20083;-38
2022/01/16 05:18:39;;;;;;;186.40;62.53;;;2.50;99.90;;;;;;6198098;23;20108;-39
2022/01/16 05:21:05;;;;;;;189.87;63.27;;;2.50;99.90;;;;;;6206618;23;20302;-38
2022/01/16 05:23:31;;;;;;;179.17;59.77;;;2.50;99.90;;;;;;6205629;23;20036;-38
2022/01/16 05:25:59;;;;;;;204.27;67.33;;;2.60;99.90;;;;;;6206712;23;20046;-38
2022/01/16 05:28:24;;;;;;;196.10;63.47;;;2.60;99.90;;;;;;6186668;23;20071;-38
2022/01/16 05:30:50;;;;;;;210.60;64.30;;;2.60;99.90;;;;;;6206413;23;20391;-38
2022/01/16 05:33:16;;;;;;;190.87;61.07;;;2.60;99.90;;;;;;6179146;23;20028;-38
2022/01/16 05:35:42;;;;;;;195.67;62.67;;;2.60;99.90;;;;;;6207012;23;20020;-38
2022/01/16 05:38:09;;;;;;;203.17;63.87;;;2.70;99.90;;;;;;6160831;23;20020;-38
2022/01/16 05:40:35;;;;;;;200.07;64.17;;;2.70;99.90;;;;;;6207247;23;20063;-37
2022/01/16 05:43:01;;;;;;;201.93;63.53;;;2.70;99.90;;;;;;6205472;23;20472;-38
2022/01/16 05:45:27;;;;;;;190.57;62.13;;;2.70;99.90;;;;;;6179371;23;20460;-38
2022/01/16 05:47:53;;;;;;;206.77;65.27;;;2.70;99.90;;;;;;6186938;23;20028;-38
2022/01/16 05:50:19;;;;;;;217.07;64.00;;;2.80;99.90;;;;;;6206483;23;20017;-37
2022/01/16 05:52:45;;;;;;;225.33;65.60;;;2.70;99.90;;;;;;6205776;23;20367;-39
2022/01/16 05:55:11;;;;;;;210.70;64.63;;;2.80;99.90;;;;;;6206692;23;20063;-38
2022/01/16 05:57:37;;;;;;;214.87;65.73;;;2.80;99.90;;;;;;6186569;23;20024;-38
2022/01/16 06:00:08;;;;;;;226.07;67.57;;;2.80;99.90;;;;;;6206517;23;20016;-37
2022/01/16 06:02:34;;;;;;;214.15;66.32;;;2.80;99.90;;;;;;6205230;23;20344;-38
2022/01/16 06:05:01;;;;;;;228.27;67.70;;;2.80;99.90;;;;;;6206850;23;20017;-38
2022/01/16 06:07:26;;;;;;;224.87;67.07;;;2.80;99.90;;;;;;6185665;23;20444;-40
2022/01/16 06:09:52;;;;;;;215.20;66.23;;;2.90;99.90;;;;;;6199270;23;20048;-38
2022/01/16 06:12:19;;;;;;;208.57;65.93;;;2.90;99.90;;;;;;6205521;23;20139;-38
2022/01/16 06:14:44;;;;;;;237.13;70.10;;;2.90;99.90;;;;;;6205866;23;20070;-38
2022/01/16 06:17:10;;;;;;;223.97;67.17;;;2.90;99.90;;;;;;6159700;23;20095;-38
2022/01/16 06:19:36;;;;;;;215.90;66.57;;;3.00;99.90;;;;;;6206575;23;20464;-39
2022/01/16 06:22:02;;;;;;;210.70;65.53;;;3.00;99.90;;;;;;6206768;23;20456;-38
2022/01/16 06:24:28;;;;;;;231.17;71.47;;;3.00;99.90;;;;;;6204736;23;20111;-38
2022/01/16 06:26:53;;;;;;;226.60;70.33;;;3.10;99.90;;;;;;6187501;23;20020;-38
2022/01/16 06:29:19;;;;;;;219.97;70.60;;;3.10;99.90;;;;;;6176200;23;20094;-39
2022/01/16 06:31:45;;;;;;;221.70;69.27;;;3.10;99.90;;;;;;6177099;23;20120;-37
2022/01/16 06:34:11;;;;;;;214.53;70.03;;;3.10;99.90;;;;;;6177121;23;20104;-39
2022/01/16 06:36:37;;;;;;;210.87;70.73;;;3.10;99.90;;;;;;6188424;23;20021;-38
2022/01/16 06:39:05;;;;;;;204.23;70.20;;;3.20;99.90;;;;;;6204228;23;20051;-38
2022/01/16 06:41:32;;;;;;;200.33;69.33;;;3.20;99.90;;;;;;6205839;23;20418;-39
2022/01/16 06:43:58;;;;;;;209.67;69.03;;;3.20;99.90;;;;;;6177713;23;20029;-38
2022/01/16 06:46:24;;;;;;;204.23;71.63;;;3.30;99.90;;;;;;6190918;23;20406;-38
2022/01/16 06:48:50;;;;;;;217.33;71.70;;;3.30;99.90;;;;;;6200591;23;20043;-38
2022/01/16 06:51:20;;;;;;;217.43;71.77;;;3.30;99.90;;;;;;6178847;23;20070;-38
2022/01/16 06:53:51;;;;;;;211.67;72.10;;;3.30;99.90;;;;;;6205060;23;20059;-38
2022/01/16 06:56:17;;;;;;;161.53;53.10;;;3.40;99.90;;;;;;6192015;23;20023;-38
2022/01/16 06:58:43;;;;;;;214.67;71.07;;;3.40;99.90;;;;;;6198923;23;20287;-37
2022/01/16 07:01:10;;;;;;;205.77;71.23;;;3.40;99.90;;;;;;6205669;23;20024;-38
2022/01/16 07:03:38;;;;;;;204.93;72.10;;;3.40;99.90;;;;;;6204301;23;20098;-38
2022/01/16 07:06:04;;;;;;;217.90;73.47;;;3.50;99.90;;;;;;6206090;23;20012;-38
2022/01/16 07:08:30;;;;;;;198.67;71.57;;;3.50;99.90;;;;;;6186502;23;20043;-38
2022/01/16 07:10:57;;;;;;;211.03;71.63;;;3.50;99.90;;;;;;6204976;23;20032;-38
2022/01/16 07:13:28;;;;;;;206.60;70.90;;;3.50;99.90;;;;;;6205003;23;20387;-38
2022/01/16 07:15:54;;;;;;;214.70;72.67;;;3.50;99.90;;;;;;6205226;23;20028;-38
2022/01/16 07:18:20;;;;;;;199.63;69.53;;;3.60;99.90;;;;;;6185782;23;20071;-38
2022/01/16 07:20:46;;;;;;;205.17;71.63;;;3.60;99.90;;;;;;6205441;23;20444;-38
2022/01/16 07:23:13;;;;;;;209.17;73.43;;;3.60;99.90;;;;;;6204447;23;20400;-38
2022/01/16 07:25:39;;;;;;;199.60;70.30;;;3.60;99.90;;;;;;6152737;23;20348;-39
2022/01/16 07:28:05;;;;;;;206.03;71.23;;;3.60;99.90;;;;;;6185675;23;20013;-37
2022/01/16 07:30:32;;;;;;;217.70;73.10;;;3.60;99.90;;;;;;6204960;23;20119;-39
2022/01/16 07:32:57;;;;;;;195.67;70.30;;;3.60;99.90;;;;;;6204199;23;20269;-38
2022/01/16 07:35:23;;;;;;;211.57;69.80;;;3.70;99.90;;;;;;6205839;23;20016;-39
2022/01/16 07:37:49;;;;;;;197.00;71.07;;;3.70;99.90;;;;;;6158167;23;20047;-39
2022/01/16 07:40:15;;;;;;;186.37;68.03;;;3.70;99.90;;;;;;6205014;23;20024;-37
2022/01/16 07:42:41;;;;;;;182.60;66.80;;;3.80;99.90;;;;;;6203905;23;20020;-38
2022/01/16 07:45:08;;;;;;;186.27;67.37;;;3.80;99.90;;;;;;6153299;23;20308;-38
2022/01/16 07:47:34;;;;;;;165.27;64.73;;;3.80;99.90;;;;;;6184994;23;20128;-38
2022/01/16 07:49:59;;;;;;;170.33;65.80;;;3.80;99.90;;;;;;6205670;23;20618;-38
2022/01/16 07:52:25;;;;;;;154.67;64.10;;;3.80;99.90;;;;;;6204359;23;20031;-38
2022/01/16 07:54:51;;;;;;;161.20;63.67;;;3.90;99.90;;;;;;6204968;23;20464;-38
2022/01/16 07:57:16;;;;;;;138.57;59.63;;;3.90;99.90;;;;;;6134010;23;20052;-38
2022/01/16 07:59:42;;;;;;;137.87;59.63;;;3.90;99.90;;;;;;6204738;23;20340;-38
2022/01/16 08:02:09;;;;;;;131.07;58.10;;;4.00;99.90;;;;;;6204387;23;20077;-37
2022/01/16 08:04:34;;;;;;;114.33;56.13;;;4.00;99.90;;;;;;6204785;23;20024;-39
2022/01/16 08:07:02;;;;;;;112.17;54.43;;;4.00;99.90;;;;;;6185687;23;20021;-38
2022/01/16 08:09:28;;;;;;;110.67;53.80;;;4.10;99.90;;;;;;6203252;23;20108;-38
2022/01/16 08:11:53;;;;;;;122.67;57.07;;;4.10;99.90;;;;;;6204353;23;20048;-38
2022/01/16 08:14:19;;;;;;;112.30;55.17;;;4.20;99.90;;;;;;6176196;23;20098;-38
2022/01/16 08:16:45;;;;;;;116.17;55.83;;;4.20;99.90;;;;;;6158364;23;20059;-38
2022/01/16 08:19:10;;;;;;;111.10;56.13;;;4.20;99.90;;;;;;6203680;23;20100;-37
2022/01/16 08:21:36;;;;;;;109.23;53.97;;;4.30;99.90;;;;;;6176932;23;20021;-38
2022/01/16 08:24:03;;;;;;;103.77;51.37;;;4.30;99.90;;;;;;6204063;23;20056;-38
2022/01/16 08:26:31;;;;;;;100.30;50.57;;;4.30;99.90;;;;;;6188958;23;20047;-38
2022/01/16 08:28:57;;;;;;;103.33;50.20;;;4.30;99.90;;;;;;6199615;23;20028;-39
2022/01/16 08:31:23;;;;;;;102.10;50.57;;;4.40;99.90;;;;;;6203947;23;20016;-38
2022/01/16 08:33:49;;;;;;;96.50;50.13;;;4.40;99.90;;;;;;6202375;23;20020;-39
2022/01/16 08:36:16;;;;;;;94.70;49.03;;;4.40;99.90;;;;;;6192900;23;20020;-39
2022/01/16 08:38:41;;;;;;;100.37;49.97;;;4.40;99.90;;;;;;6198623;23;20020;-38
2022/01/16 08:41:07;;;;;;;90.77;48.00;;;4.50;99.90;;;;;;6203870;23;20028;-38
2022/01/16 08:43:33;;;;;;;97.83;47.37;;;4.50;99.90;;;;;;6176958;23;20327;-39
2022/01/16 08:45:59;;;;;;;92.30;47.83;;;4.50;99.90;;;;;;6203940;23;20569;-38
2022/01/16 08:48:25;;;;;;;90.03;46.37;;;4.50;99.90;;;;;;6157924;23;20024;-38
2022/01/16 08:50:50;;;;;;;87.23;46.50;;;4.50;99.90;;;;;;6177394;23;20352;-38
2022/01/16 08:53:16;;;;;;;90.90;47.03;;;4.60;99.90;;;;;;6203065;23;20052;-38
2022/01/16 08:55:42;;;;;;;92.47;45.77;;;4.60;99.90;;;;;;6176479;23;20036;-38
2022/01/16 08:58:08;;;;;;;86.23;44.60;;;4.60;99.90;;;;;;6156998;23;20198;-39
2022/01/16 09:00:34;;;;;;;86.33;44.33;;;4.60;99.90;;;;;;6160960;23;20032;-38
2022/01/16 09:03:00;;;;;;;78.50;43.90;;;4.70;99.90;;;;;;6175480;23;20021;-38
2022/01/16 09:05:27;;;;;;;77.80;43.10;;;4.70;99.90;;;;;;6204604;23;20032;-38
2022/01/16 09:07:53;;;;;;;75.37;43.20;;;4.70;99.90;;;;;;6168911;23;20082;-39
2022/01/16 09:10:19;;;;;;;78.87;42.60;;;4.70;99.90;;;;;;6202821;23;20452;-39
2022/01/16 09:12:45;;;;;;;76.47;41.70;;;4.80;99.90;;;;;;6202675;23;20017;-38
2022/01/16 09:15:12;;;;;;;76.07;42.07;;;4.70;99.90;;;;;;6204077;23;20062;-38
2022/01/16 09:17:39;;;;;;;69.40;40.20;;;4.80;99.90;;;;;;6182748;23;20013;-39
2022/01/16 09:20:07;;;;;;;82.10;41.43;;;4.80;99.90;;;;;;6177586;23;20017;-39
2022/01/16 09:22:34;;;;;;;70.63;40.07;;;4.80;99.90;;;;;;6203221;23;20024;-38
2022/01/16 09:24:59;;;;;;;68.37;39.03;;;4.90;99.90;;;;;;6203101;23;20025;-38
2022/01/16 09:27:25;;;;;;;70.93;39.13;;;4.80;99.90;;;;;;6157610;23;20024;-40
2022/01/16 09:29:51;;;;;;;73.97;39.70;;;4.90;99.90;;;;;;6175694;23;20040;-39
2022/01/16 09:32:17;;;;;;;75.70;38.33;;;4.90;99.90;;;;;;6203199;23;20032;-38
2022/01/16 09:34:43;;;;;;;72.07;39.20;;;5.00;99.90;;;;;;6203584;23;20033;-38
2022/01/16 09:37:10;;;;;;;73.97;39.63;;;5.00;99.90;;;;;;6185465;23;20021;-38
2022/01/16 09:39:39;;;;;;;71.37;39.43;;;5.00;99.90;;;;;;6203223;23;20099;-39
2022/01/16 09:42:07;;;;;;;72.83;38.93;;;5.10;99.90;;;;;;6204109;23;20028;-39
2022/01/16 09:44:38;;;;;;;74.40;37.47;;;5.10;99.90;;;;;;6205654;23;20021;-38
2022/01/16 09:47:04;;;;;;;70.18;38.00;;;5.20;99.90;;;;;;6159553;23;20020;-41
2022/01/16 09:49:30;;;;;;;67.60;37.27;;;5.20;99.90;;;;;;6205707;23;20019;-39
2022/01/16 09:51:56;;;;;;;65.93;37.00;;;5.20;99.90;;;;;;6205410;23;20020;-38
2022/01/16 09:54:22;;;;;;;69.70;37.90;;;5.20;99.90;;;;;;6125905;23;20029;-30
2022/01/16 09:56:49;;;;;;;63.47;36.17;;;5.20;99.90;;;;;;6108606;23;20113;-31
2022/01/16 09:59:15;;;;;;;65.27;36.87;;;5.30;99.90;;;;;;6142383;23;20120;-31
2022/01/16 10:01:41;;;;;;;67.37;36.80;;;5.30;99.90;;;;;;6117535;23;20457;-30
2022/01/16 10:04:29;;;;;;;75.07;37.37;;;5.30;99.90;;;;;;6142505;23;20113;-30
2022/01/16 10:07:01;;;;;;;68.77;36.10;;;5.40;99.90;;;;;;6124097;23;20037;-31
2022/01/16 10:09:27;;;;;;;65.90;36.73;;;5.40;99.90;;;;;;6138497;23;20029;-30
2022/01/16 10:11:59;;;;;;;60.60;35.53;;;5.50;99.90;;;;;;6143391;23;20022;-30
2022/01/16 10:14:36;;;;;;;66.80;36.00;;;5.50;99.90;;;;;;6142873;23;20032;-30
2022/01/16 10:17:10;;;;;;;67.87;36.23;;;5.60;99.90;;;;;;6081798;23;20465;-30
2022/01/16 10:19:38;;;;;;;66.50;36.67;;;5.50;99.90;;;;;;6142303;23;20053;-30
2022/01/16 10:22:14;;;;;;;78.53;36.53;;;5.60;99.90;;;;;;6143060;23;20021;-30
2022/01/16 10:24:41;;;;;;;63.47;35.20;;;5.60;99.90;;;;;;6143573;23;20298;-31
2022/01/16 10:27:09;;;;;;;62.50;34.27;;;5.70;99.90;;;;;;6124512;23;20449;-31
2022/01/16 10:29:42;;;;;;;72.53;35.80;;;5.70;99.90;;;;;;6142519;23;20017;-31
2022/01/16 10:32:31;;;;;;;61.87;34.33;;;5.70;99.90;;;;;;6142439;23;20028;-30
2022/01/16 10:35:23;;;;;;;59.63;32.97;;;5.80;99.90;;;;;;6144317;23;20112;-31
2022/01/16 10:37:57;;;;;;;72.67;33.87;;;5.80;99.90;;;;;;6108012;23;20095;-32
2022/01/16 10:40:33;;;;;;;64.40;32.22;;;5.90;99.90;;;;;;6148561;23;20093;-31
2022/01/16 10:43:04;;;;;;;67.27;33.93;;;5.90;99.90;;;;;;6131806;23;20077;-31
2022/01/16 10:45:35;;;;;;;63.53;33.33;;;5.90;99.90;;;;;;6141471;23;20021;-32
2022/01/16 10:48:04;;;;;;;68.67;32.87;;;5.90;99.90;;;;;;6130313;23;20032;-31
2022/01/16 10:50:47;;;;;;;68.60;32.43;;;6.00;99.90;;;;;;6121903;23;20018;-32
2022/01/16 10:53:17;;;;;;;61.07;30.77;;;6.00;99.90;;;;;;6112045;23;20026;-31
2022/01/16 10:56:09;;;;;;;60.80;28.60;;;6.00;99.90;;;;;;6118027;23;20073;-32
2022/01/16 10:58:41;;;;;;;55.03;28.52;;;6.10;99.90;;;;;;6064607;23;20404;-32
2022/01/16 11:01:19;;;;;;;63.57;28.37;;;6.10;99.90;;;;;;6118785;23;20022;-31
2022/01/16 11:03:50;;;;;;;62.80;27.37;;;6.10;99.90;;;;;;6101629;23;20138;-32
2022/01/16 11:06:18;;;;;;;53.20;26.20;;;6.20;99.90;;;;;;6109980;23;20611;-31
2022/01/16 11:09:04;;;;;;;46.03;25.77;;;6.20;99.90;;;;;;6089004;23;20283;-31
2022/01/16 11:11:32;;;;;;;49.47;24.23;;;6.20;99.90;;;;;;6118649;23;20026;-32
2022/01/16 11:14:04;;;;;;;49.17;24.27;;;6.20;99.90;;;;;;6116863;23;20029;-31
2022/01/16 11:16:31;;;;;;;48.83;24.27;;;6.20;99.90;;;;;;6106097;23;20021;-31
2022/01/16 11:18:58;;;;;;;39.27;22.13;;;6.30;99.90;;;;;;6115168;23;20033;-31
2022/01/16 11:21:32;;;;;;;40.93;21.87;;;6.30;99.90;;;;;;6092100;23;20018;-31
2022/01/16 11:24:24;;;;;;;46.53;23.60;;;6.30;99.90;;;;;;6116101;23;20033;-32
2022/01/16 11:26:49;;;;;;;40.37;20.97;;;6.30;99.90;;;;;;6102308;23;20033;-31
2022/01/16 11:29:15;;;;;;;50.27;20.63;;;6.30;99.90;;;;;;6116004;23;20026;-32
2022/01/16 11:31:43;;;;;;;44.93;20.87;;;6.40;99.90;;;;;;6091549;23;20083;-31
2022/01/16 11:34:10;;;;;;;39.07;19.57;;;6.40;99.90;;;;;;6116506;23;20454;-31
2022/01/16 11:36:36;;;;;;;35.73;19.07;;;6.40;99.90;;;;;;6105969;23;20072;-32
2022/01/16 11:39:04;;;;;;;43.30;18.60;;;6.30;99.90;;;;;;6115941;23;20028;-31
2022/01/16 11:41:35;;;;;;;40.07;18.47;;;6.40;99.90;;;;;;6105500;23;20063;-31
2022/01/16 11:44:28;;;;;;;34.47;16.40;;;6.50;99.90;;;;;;6089882;23;20026;-32
2022/01/16 11:46:56;;;;;;;32.07;16.13;;;6.40;99.90;;;;;;6045792;23;20137;-31
2022/01/16 11:49:38;;;;;;;36.60;16.10;;;6.50;99.90;;;;;;6091013;23;20030;-31
2022/01/16 11:52:09;;;;;;;27.93;15.37;;;6.50;99.90;;;;;;6116063;23;20018;-36
2022/01/16 11:54:40;;;;;;;30.38;14.18;;;6.50;99.90;;;;;;6116417;23;20350;-31
2022/01/16 11:57:24;;;;;;;28.80;13.70;;;6.50;99.90;;;;;;6102464;23;20033;-32
2022/01/16 12:00:12;;;;;;;34.07;13.13;;;6.50;99.90;;;;;;6117275;23;20014;-32
2022/01/16 12:02:43;;;;;;;31.07;13.00;;;6.50;99.90;;;;;;6089209;23;20026;-32
2022/01/16 12:05:10;;;;;;;25.90;12.10;;;6.50;99.90;;;;;;6066626;23;20513;-32
2022/01/16 12:08:19;;;;;;;28.30;11.93;;;6.50;99.90;;;;;;6061407;23;20433;-31
2022/01/16 12:10:55;;;;;;;28.27;11.70;;;6.60;99.90;;;;;;6094511;23;20018;-32
2022/01/16 12:13:52;;;;;;;28.53;10.60;;;6.60;99.90;;;;;;6116970;23;20366;-31
2022/01/16 12:16:43;;;;;;;25.77;10.60;;;6.60;99.90;;;;;;6082488;23;20089;-31
2022/01/16 12:19:32;;;;;;;26.63;9.77;;;6.60;99.90;;;;;;6116113;23;20025;-32
2022/01/16 12:21:58;;;;;;;27.57;10.30;;;6.60;99.90;;;;;;6091377;23;20464;-31
2022/01/16 12:25:08;;;;;;;25.90;9.30;;;6.70;99.90;;;;;;6116538;23;20040;-32
2022/01/16 12:27:44;;;;;;;20.80;9.47;;;6.60;99.90;;;;;;6069626;23;20033;-31
2022/01/16 12:30:32;;;;;;;23.73;10.07;;;6.70;99.90;;;;;;6092676;23;20057;-32
2022/01/16 12:33:36;;;;;;;24.63;10.23;;;6.70;99.90;;;;;;6116146;23;20021;-32
2022/01/16 12:36:30;;;;;;;21.67;10.20;;;6.70;99.90;;;;;;6116565;23;20026;-31
2022/01/16 12:39:04;;;;;;;;;;;6.70;99.90;;;;;;6114346;23;20014;-31
2022/01/16 12:41:41;;;;;;;21.53;9.50;;;6.70;99.90;;;;;;6117358;23;19928;-32
2022/01/16 12:44:10;;;;;;;21.73;8.57;;;6.70;99.90;;;;;;6082216;23;20034;-32
2022/01/16 12:46:47;;;;;;;19.63;9.30;;;6.70;99.90;;;;;;6102971;23;20220;-33
2022/01/16 12:49:26;;;;;;;24.20;8.77;;;6.70;99.90;;;;;;6116013;23;20516;-32
2022/01/16 12:51:57;;;;;;;24.90;9.63;;;6.70;99.90;;;;;;6116957;23;20022;-32
2022/01/16 12:54:27;;;;;;;23.67;8.27;;;6.70;99.90;;;;;;6113732;23;20073;-32
2022/01/16 12:57:02;;;;;;;25.00;8.63;;;6.70;99.90;;;;;;6073458;23;20354;-32
2022/01/16 12:59:30;;;;;;;24.20;9.17;;;6.70;99.90;;;;;;6114336;23;20026;-32
2022/01/16 13:01:58;;;;;;;19.67;8.43;;;6.70;99.90;;;;;;6115846;23;20009;-32
2022/01/16 13:04:34;;;;;;;21.27;8.77;;;6.70;99.90;;;;;;6072416;23;20026;-32
2022/01/16 13:07:03;;;;;;;18.40;7.97;;;6.70;99.90;;;;;;6073563;23;20014;-32
2022/01/16 13:09:32;;;;;;;24.10;8.00;;;6.70;99.90;;;;;;6116697;23;20081;-31
2022/01/16 13:12:00;;;;;;;23.77;8.77;;;6.70;99.90;;;;;;6118687;23;20127;-32
2022/01/16 13:14:31;;;;;;;14.43;8.27;;;6.70;99.90;;;;;;6117547;23;20441;-32
2022/01/16 13:17:01;;;;;;;20.38;8.45;;;6.70;99.90;;;;;;6103624;23;20342;-32
2022/01/16 13:19:28;;;;;;;18.17;8.70;;;6.70;99.90;;;;;;6117682;23;20521;-32
2022/01/16 13:22:05;;;;;;;21.13;8.70;;;6.70;99.90;;;;;;6119985;23;20040;-32
2022/01/16 13:24:44;;;;;;;18.13;9.10;;;6.70;99.90;;;;;;6093099;23;20041;-32